ADDS METAR Data INFO
IDs: Format: Raw Decoded Include TAF

Data at: 1906 UTC 21 Apr 2018

KE38 211855Z AUTO 25015G23KT 10SM CLR 23/M13 A3010 RMK AO2 T02331132
KE38 211835Z AUTO 28012G22KT 10SM CLR 24/M14 A3011 RMK AO2 T02361143
KE38 211815Z AUTO 30010G17KT 10SM CLR 23/M13 A3011 RMK AO2 T02281132
KE38 211755Z AUTO 30004KT 10SM CLR 22/M12 A3012 RMK AO2 T02211117 10226 20105
KE38 211735Z AUTO 31006G17KT 10SM CLR 22/M11 A3012 RMK AO2 T02231114
KE38 211715Z AUTO 31013G19KT 10SM CLR 22/M11 A3012 RMK AO2 T02181107
KE38 211655Z AUTO 28014G17KT 10SM CLR 21/M11 A3013 RMK AO2 T02101114
KE38 211635Z AUTO 31008KT 10SM CLR 21/M12 A3013 RMK AO2 T02061116
KE38 211615Z AUTO 28012KT 10SM SCT110 20/M12 A3013 RMK AO2 T02041122
KE38 211555Z AUTO 26008G15KT 10SM SCT110 19/M10 A3013 RMK AO2 T01911105
KE38 211535Z AUTO 35007G14KT 10SM CLR 19/M10 A3013 RMK AO2 T01881098
KE38 211515Z AUTO 27010G16KT 230V290 10SM CLR 18/M09 A3013 RMK AO2 T01801090
KE38 211455Z AUTO 24010KT 10SM CLR 17/M08 A3013 RMK AO2 T01681080
KE38 211435Z AUTO 26011KT 10SM CLR 16/M08 A3013 RMK AO2 LTG DSNT N T01621081
KE38 211415Z AUTO 24012KT 10SM CLR 15/M08 A3013 RMK AO2 T01501081
KE38 211355Z AUTO 23007KT 10SM CLR 14/M08 A3012 RMK AO2 T01411083
KE38 211335Z AUTO 22005KT 10SM CLR 14/M09 A3012 RMK AO2 T01381086
KE38 211315Z AUTO 22005G14KT 10SM CLR 13/M09 A3011 RMK AO2 T01321093
KE38 211255Z AUTO 23007KT 200V310 10SM CLR 12/M10 A3011 RMK AO2 T01211102
KE38 211235Z AUTO 24008KT 10SM CLR 11/M11 A3010 RMK AO2 T01141107
KE38 211215Z AUTO 23009KT 10SM CLR 11/M12 A3009 RMK AO2 T01071123
KE38 211155Z AUTO 23009KT 10SM CLR 12/M12 A3009 RMK AO2 T01211124 10130 20068
KE38 211135Z AUTO 25007KT 10SM CLR 13/M13 A3009 RMK AO2 T01261130
KE38 211115Z AUTO 25009KT 10SM CLR 13/M13 A3009 RMK AO2 T01291133
KE38 211055Z AUTO 24008KT 10SM CLR 13/M14 A3008 RMK AO2 T01291140
KE38 211035Z AUTO 25009KT 10SM CLR 11/M13 A3009 RMK AO2 T01051135
KE38 211015Z AUTO 26010KT 10SM CLR 11/M13 A3008 RMK AO2 T01141133
KE38 210955Z AUTO 24007KT 10SM CLR 07/M10 A3008 RMK AO2 T00711102
KE38 210935Z AUTO 20004KT 10SM CLR 09/M10 A3008 RMK AO2 T00861104
KE38 210915Z AUTO 25006KT 10SM CLR 08/M09 A3008 RMK AO2 T00751092
KE38 210855Z AUTO 25007KT 10SM CLR 09/M09 A3007 RMK AO2 T00941094
KE38 210835Z AUTO 24006KT 10SM CLR 10/M09 A3006 RMK AO2 T00951094
KE38 210815Z AUTO 25008KT 10SM CLR 10/M08 A3006 RMK AO2 T00951085
KE38 210755Z AUTO 26007KT 10SM CLR 09/M08 A3006 RMK AO2 T00941083
KE38 210735Z AUTO 25005KT 10SM CLR 10/M09 A3007 RMK AO2 T01011086
KE38 210715Z AUTO 22005KT 10SM CLR 10/M08 A3007 RMK AO2 T00981079
KE38 210655Z AUTO 23006KT 10SM CLR 11/M07 A3007 RMK AO2 T01061072
KE38 210635Z AUTO 22005KT 10SM CLR 11/M06 A3006 RMK AO2 T01141056
KE38 210615Z AUTO 19005KT 10SM CLR 12/M05 A3006 RMK AO2 T01241052
KE38 210555Z AUTO 20004KT 10SM CLR 13/M06 A3006 RMK AO2 T01271056 10267 20127 402900121
KE38 210535Z AUTO 00000KT 10SM CLR 16/M09 A3004 RMK AO2 T01581091
KE38 210515Z AUTO 00000KT 10SM CLR 15/M08 A3005 RMK AO2 T01531079
KE38 210455Z AUTO 00000KT 10SM CLR 18/M11 A3005 RMK AO2 T01751108
KE38 210435Z AUTO 04007KT 10SM CLR 18/M11 A3004 RMK AO2 T01841110
KE38 210415Z AUTO 05006KT 10SM CLR 18/M08 A3004 RMK AO2 T01821085
KE38 210355Z AUTO 04008KT 10SM CLR 19/02 A3004 RMK AO2 T01860016
KE38 210335Z AUTO 07005KT 10SM CLR 18/12 A3004 RMK AO2 T01770115
KE38 210315Z AUTO 05005G18KT 10SM CLR 19/12 A3002 RMK AO2 T01940115
KE38 210255Z AUTO 19008KT 10SM CLR 19/11 A3000 RMK AO2 T01900112
KE38 210235Z AUTO 16004KT 10SM CLR 20/11 A2999 RMK AO2 T01990111
KE38 210215Z AUTO 19007KT 10SM CLR 21/11 A2997 RMK AO2 T02050110
KE38 210155Z AUTO 18006KT 10SM CLR 21/10 A2994 RMK AO2 T02130104
KE38 210135Z AUTO 21008KT 10SM SCT110 22/11 A2994 RMK AO2 T02210105
KE38 210115Z AUTO 28015KT 10SM SCT110 22/11 A2993 RMK AO2 T02210109
KE38 210055Z AUTO 15012G21KT 10SM SCT110 23/10 A2988 RMK AO2 T02330099
KE38 210035Z AUTO 16019G25KT 10SM CLR 24/10 A2987 RMK AO2 T02350100
KE38 210015Z AUTO 14015G23KT 10SM CLR 25/10 A2987 RMK AO2 T02460101
KE38 202355Z AUTO 16017G29KT 10SM CLR 27/09 A2987 RMK AO2 T02670090 10290 20243
KE38 202335Z AUTO 16024G29KT 10SM CLR 27/09 A2986 RMK AO2 T02680089
KE38 202315Z AUTO 15015G25KT 10SM CLR 27/09 A2987 RMK AO2 T02730094
KE38 202255Z AUTO 17020G25KT 10SM CLR 28/07 A2987 RMK AO2 T02840074
KE38 202235Z AUTO 17020G28KT 10SM CLR 29/07 A2988 RMK AO2 T02850074
KE38 202215Z AUTO 16018G25KT 10SM CLR 29/07 A2989 RMK AO2 T02870074
KE38 202155Z AUTO 19022G29KT 10SM CLR 28/08 A2990 RMK AO2 T02840075
KE38 202135Z AUTO 18018G30KT 7SM CLR 28/07 A2990 RMK AO2 T02820071
KE38 202115Z AUTO 20022G31KT 10SM CLR 29/07 A2991 RMK AO2 T02850073
KE38 202055Z AUTO 21023G28KT 10SM CLR 29/07 A2992 RMK AO2 T02900073
KE38 202035Z AUTO 17022G29KT 10SM CLR 28/09 A2993 RMK AO2 T02810092
KE38 202015Z AUTO 16017G28KT 10SM CLR 28/09 A2994 RMK AO2 T02810094
KE38 201955Z AUTO 16019G29KT 10SM CLR 27/09 A2995 RMK AO2 T02710094
KE38 201935Z AUTO 17019G29KT 10SM CLR 27/10 A2996 RMK AO2 T02670096
KE38 201915Z AUTO 18018G31KT 7SM CLR 26/10 A2998 RMK AO2 T02550098
KE38 201855Z AUTO 16021G31KT 7SM CLR 25/10 A2999 RMK AO2 T02530099
KE38 201835Z AUTO 18018G29KT 7SM CLR 25/10 A3000 RMK AO2 T02520099
KE38 201815Z AUTO 17019G28KT 10SM CLR 25/10 A3001 RMK AO2 T02510098
KE38 201755Z AUTO 19019G30KT 5SM CLR 24/10 A3002 RMK AO2 T02410095 10247 20122
KE38 201735Z AUTO 18023G31KT 7SM CLR 24/09 A3003 RMK AO2 T02420093
KE38 201715Z AUTO 19018G27KT 10SM CLR 24/09 A3004 RMK AO2 T02360090
KE38 201655Z AUTO 18021G26KT 10SM CLR 23/09 A3005 RMK AO2 T02320088
KE38 201635Z AUTO 20021KT 10SM CLR 22/09 A3005 RMK AO2 T02240090
KE38 201615Z AUTO 19019G29KT 7SM CLR 22/09 A3005 RMK AO2 T02170091
KE38 201555Z AUTO 19019G26KT 10SM CLR 21/09 A3005 RMK AO2 T02080085
KE38 201535Z AUTO 19012G20KT 10SM CLR 20/08 A3007 RMK AO2 T02030082
KE38 201515Z AUTO 17008KT 10SM CLR 19/08 A3007 RMK AO2 T01920080
KE38 201455Z AUTO 21013G17KT 10SM SCT075 19/08 A3008 RMK AO2 T01860079
KE38 201435Z AUTO 19011G15KT 10SM SCT075 17/07 A3009 RMK AO2 T01740072
KE38 201415Z AUTO 16008KT 10SM CLR 16/07 A3011 RMK AO2 T01610066
KE38 201355Z AUTO 19009G14KT 10SM CLR 16/07 A3011 RMK AO2 T01570067
KE38 201335Z AUTO 21009KT 10SM CLR 15/06 A3011 RMK AO2 T01450058
KE38 201315Z AUTO 21013KT 10SM CLR 14/05 A3011 RMK AO2 T01360050
KE38 201255Z AUTO 19011G16KT 7SM CLR 14/05 A3011 RMK AO2 T01360054
KE38 201235Z AUTO 18011KT 10SM CLR 13/05 A3010 RMK AO2 LTG DSNT SE T01300048
KE38 201215Z AUTO 19014KT 10SM CLR 13/05 A3010 RMK AO2 T01320049
KE38 201155Z AUTO 21010KT 10SM CLR 12/04 A3010 RMK AO2 T01220039 10150 20121
KE38 201135Z AUTO 17013G17KT 10SM CLR 13/04 A3010 RMK AO2 T01260040
KE38 201115Z AUTO 18013KT 10SM CLR 13/04 A3010 RMK AO2 T01270041
KE38 201055Z AUTO 19010KT 10SM CLR 13/04 A3010 RMK AO2 T01290042
KE38 201035Z AUTO 21013KT 10SM CLR 13/04 A3010 RMK AO2 T01260037
KE38 201015Z AUTO 21009KT 10SM CLR 12/04 A3010 RMK AO2 T01210040
KE38 200955Z AUTO 00000KT 10SM CLR 12/05 A3009 RMK AO2 T01230047
KE38 200935Z AUTO 21007KT 10SM CLR 13/05 A3010 RMK AO2 T01290049
KE38 200915Z AUTO 16012G16KT 10SM CLR 14/05 A3010 RMK AO2 T01390050
KE38 200855Z AUTO 15009G20KT 10SM CLR 14/05 A3011 RMK AO2 T01420053
KE38 200835Z AUTO 20012G21KT 170V230 10SM CLR 14/05 A3011 RMK AO2 T01420054
KE38 200815Z AUTO 17011G19KT 10SM CLR 15/06 A3010 RMK AO2 T01450059
KE38 200755Z AUTO 17009G17KT 10SM CLR 14/06 A3011 RMK AO2 T01420055
KE38 200735Z AUTO 15011G17KT 10SM CLR 15/06 A3011 RMK AO2 T01450057
KE38 200715Z AUTO 18011G16KT 10SM CLR 14/06 A3013 RMK AO2 T01430055